Flight Track Log - Related Links

Times and Time Zones

All times are in EDT time to prevent confusion due to time zone crossing. See the DAL6231 flight status page for this flight to view local times or setup timezone preferences in your user account.

Time Position Orientation Groundspeed Altitude Reporting Facility
EDT Latitude Longitude Course Direction KTS MPH feet Rate Location/Type
Wed 09:08:58 PM 40.7500 -73.8333 48° Northeast 154 177 1,400  Level New York TRACON
Wed 09:09:58 PM 40.7333 -73.7833 114° Southeast 244 281 3,000 2,238 Climbing New York TRACON
Wed 09:11:04 PM 40.7833 -73.7000 52° Northeast 261 300 6,100 2,952 Climbing New York TRACON
Wed 09:12:04 PM 40.8500 -73.6500 30° Northeast 268 308 9,200 2,100 Climbing New York TRACON
Wed 09:13:04 PM 40.9167 -73.6167 21° North 266 306 10,300 1,150 Climbing New York TRACON
Wed 09:14:00 PM 41.2624 -73.2647 48° Northeast  Level FlightAware Approximate
Wed 09:14:04 PM 41.0000 -73.5833 17° North 276 318 11,500  Level New York TRACON
Wed 09:15:44 PM 41.0125 -73.4028 85° East 326 375 12,400 563 Climbing Boston Center
Wed 09:16:44 PM 41.0817 -73.3406 34° Northeast 304 350 13,000 1,250 Climbing Boston Center
Wed 09:17:44 PM 41.1719 -73.2756 28° Northeast 313 360 14,900 2,150 Climbing Boston Center
Wed 09:18:44 PM 41.2764 -73.2133 24° Northeast 355 409 17,300 2,250 Climbing Boston Center
Wed 09:19:44 PM 41.3603 -73.1536 28° Northeast 362 417 19,400 1,950 Climbing Boston Center
Wed 09:20:44 PM 41.4297 -73.0381 51° Northeast 375 432 21,200 1,700 Climbing Boston Center
Wed 09:21:44 PM 41.4867 -72.9028 61° Northeast 385 443 22,800 900 Climbing Boston Center
Wed 09:22:44 PM 41.5517 -72.7536 60° Northeast 408 470 23,000 550 Climbing Boston Center
Wed 09:23:44 PM 41.6125 -72.6150 60° Northeast 419 482 23,900 1,000 Climbing Boston Center
Wed 09:24:44 PM 41.6731 -72.4733 60° Northeast 429 494 25,000 1,136 Climbing Boston Center
Wed 09:25:56 PM 41.7481 -72.2956 60° Northeast 445 512 26,400 1,136 Climbing Boston Center
Wed 09:26:56 PM 41.8122 -72.1447 60° Northeast 450 518 27,500 1,100 Climbing Boston Center
Wed 09:27:56 PM 41.8764 -71.9939 60° Northeast 456 525 28,600 1,050 Climbing Boston Center
Wed 09:28:56 PM 41.9425 -71.8372 60° Northeast 464 534 29,600 900 Climbing Boston Center
Wed 09:29:56 PM 42.0061 -71.6831 61° Northeast 464 534 30,400 700 Climbing Boston Center
Wed 09:30:56 PM 42.0758 -71.5283 59° Northeast 470 541 31,000 300 Climbing Boston Center
Wed 09:31:56 PM 42.1389 -71.3678 62° Northeast 476 548 31,000 -50 Level Boston Center
Wed 09:32:56 PM 42.2061 -71.2042 61° Northeast 488 562 30,900  Descending Boston Center
Wed 09:33:56 PM 42.2708 -71.0456 61° Northeast 488 562 31,000 50 Climbing Boston Center
Wed 09:34:56 PM 42.3356 -70.8842 61° Northeast 483 556 31,000  Level Boston Center
Wed 09:35:56 PM 42.3978 -70.7194 63° Northeast 483 556 31,000  Level Boston Center
Wed 09:36:56 PM 42.4619 -70.5572 62° Northeast 483 556 31,000  Level Boston Center
Wed 09:37:56 PM 42.5258 -70.3919 62° Northeast 483 556 31,000  Level Boston Center
Wed 09:38:56 PM 42.5914 -70.2289 61° Northeast 483 556 31,000  Level Boston Center
Wed 09:39:56 PM 42.6675 -70.0767 56° Northeast 483 556 31,000  Level Boston Center
Wed 09:40:56 PM 42.7653 -69.9597 41° Northeast 468 539 31,000  Level Boston Center
Wed 09:41:56 PM 42.8647 -69.8394 42° Northeast 462 532 31,000  Level Boston Center
Wed 09:42:56 PM 42.9556 -69.7194 44° Northeast 462 532 31,000  Level Boston Center
Wed 09:43:56 PM 43.0508 -69.6044 41° Northeast 462 532 31,000  Level Boston Center
Wed 09:44:56 PM 43.1478 -69.4803 43° Northeast 462 532 31,000  Level Boston Center
Wed 09:45:56 PM 43.2425 -69.3561 44° Northeast 462 532 31,000  Level Boston Center
Wed 09:46:56 PM 43.3372 -69.2369 42° Northeast 462 532 31,000  Level Boston Center
Wed 09:47:56 PM 43.4356 -69.1117 43° Northeast 467 537 31,000  Level Boston Center
Wed 09:48:56 PM 43.5339 -68.9831 43° Northeast 467 537 31,000  Level Boston Center
Wed 09:49:56 PM 43.6344 -68.8567 42° Northeast 472 543 31,000  Level Boston Center
Wed 09:50:56 PM 43.7283 -68.7333 43° Northeast 479 551 31,000  Level Boston Center
Wed 09:51:56 PM 43.8264 -68.6036 44° Northeast 479 551 31,000  Level Boston Center
Wed 09:52:56 PM 43.9242 -68.4761 43° Northeast 479 551 31,000  Level Boston Center
Wed 09:53:56 PM 44.0239 -68.3481 43° Northeast 479 551 31,000  Level Boston Center
Wed 09:54:56 PM 44.1192 -68.2200 44° Northeast 479 551 31,000  Level Boston Center
Wed 09:55:56 PM 44.2167 -68.0914 43° Northeast 479 551 31,000  Level Boston Center
Wed 09:56:56 PM 44.3117 -67.9625 44° Northeast 479 551 31,000  Level Boston Center
Wed 09:57:52 PM 44.3833 -67.8333 52° Northeast 470 541 31,000  Level Moncton Center
Wed 09:58:52 PM 44.4667 -67.7167 45° Northeast 470 541 31,000  Level Moncton Center
Wed 09:59:52 PM 44.5833 -67.5833 39° Northeast 480 552 31,000  Level Moncton Center
Wed 10:00:52 PM 44.6667 -67.4500 49° Northeast 490 564 31,000  Level Moncton Center
Wed 10:01:52 PM 44.7667 -67.3167 43° Northeast 490 564 31,000  Level Moncton Center
Wed 10:02:52 PM 44.8667 -67.1833 43° Northeast 490 564 31,000  Level Moncton Center
Wed 10:03:52 PM 44.9000 -66.9667 78° East 510 587 31,000  Level Moncton Center
Wed 10:04:52 PM 44.9000 -66.7833 90° East 510 587 31,000  Level Moncton Center
Wed 10:05:52 PM 44.9000 -66.6000 90° East 490 564 31,000  Level Moncton Center
Wed 10:06:52 PM 44.9000 -66.3833 90° East 490 564 31,000  Level Moncton Center
Wed 10:07:52 PM 44.9000 -66.2167 90° East 490 564 31,000  Level Moncton Center
Wed 10:08:52 PM 44.9167 -66.0000 84° East 500 575 31,000  Level Moncton Center
Wed 10:09:52 PM 44.9167 -65.8167 90° East 500 575 31,000 -150 Level Moncton Center
Wed 10:10:52 PM 44.9167 -65.6000 90° East 510 587 30,700 -1,100 Descending Moncton Center
Wed 10:11:52 PM 44.9167 -65.4167 90° East 510 587 28,800 -2,150 Descending Moncton Center
Wed 10:12:52 PM 44.9167 -65.2167 90° East 490 564 26,400 -2,500 Descending Moncton Center
Wed 10:13:52 PM 44.9167 -65.0333 90° East 470 541 23,800 -2,550 Descending Moncton Center
Wed 10:14:52 PM 44.9167 -64.8500 90° East 460 529 21,300 -2,550 Descending Moncton Center
Wed 10:15:52 PM 44.9167 -64.6833 90° East 430 495 18,700 -2,500 Descending Moncton Center
Wed 10:16:52 PM 44.9167 -64.5167 90° East 410 472 16,300 -2,450 Descending Moncton Center
Wed 10:17:52 PM 44.9167 -64.3667 90° East 380 437 13,800 -2,350 Descending Moncton Center
Wed 10:18:52 PM 44.9167 -64.2333 90° East 360 414 11,600 -1,850 Descending Moncton Center
Wed 10:19:52 PM 44.9167 -64.1167 90° East 320 368 10,100 -1,650 Descending Moncton Center
Wed 10:20:52 PM 44.9167 -64.0000 90° East 300 345 8,300 -1,800 Descending Moncton Center
Wed 10:21:52 PM 44.9167 -63.8833 90° East 290 334 6,500 -1,750 Descending Moncton Center
Wed 10:22:52 PM 44.9333 -63.7833 77° East 280 322 4,800 -1,500 Descending Moncton Center
Wed 10:23:52 PM 44.9500 -63.6667 79° East 270 311 3,500 -650 Descending Moncton Center
Wed 10:24:52 PM 44.9667 -63.6000 71° East 220 253 3,500 -150 Level Moncton Center
Wed 10:25:52 PM 44.9667 -63.5000 90° East 200 230 3,200 -750 Descending Moncton Center
Wed 10:26:52 PM 44.9500 -63.4500 115° Southeast 160 184 2,000 -950 Descending Moncton Center
Wed 10:27:52 PM 44.9167 -63.4500 180° South 110 127 1,300 -500 Descending Moncton Center
Wed 10:28:52 PM 44.8833 -63.4833 215° Southwest 100 115 1,000 -450 Descending Moncton Center
Wed 10:29:52 PM 44.8667 -63.5000 215° Southwest 110 127 400 -300 Descending Moncton Center
Wed 10:30:52 PM 44.8500 -63.5167 215° Southwest 110 127 400  Level Moncton Center

Login

Don't have an account? Register now (free) for customized features, flight alerts, and more!